Latest Weather Observations for McArthur River Mine

IDD60801

Issued at 4:01 pm CST Wednesday 4 March 2015 (issued every 30 minutes, with the page automatically refreshed every 10 minutes)

About weather observations | Map of weather stations | Latest weather observations for NT | Other Formats
Station Details ID: 014704 Name: MCARTHUR RIVER MINE AIRPORT Lat: -16.44 Lon: 136.08 Height: 40.0 m
Data from the previous 72 hours. | See also: Recent months at McArthur River Mine
Date/Time
CST
Temp
°C
App
Temp
°C
Dew
Point
Rel
Hum
%
Delta-T
°C
Wind Press
QNH
hPa
Press
MSL
hPa
Rain
since 9 am
mm
Dir
 
Spd
km/h
Gust
km/h
Spd
kts
Gust
kts
04/04:00pm 28.2 34.0 25.8 87 1.7 N 6 9 3 5 1007.5 - 5.0
04/03:30pm 26.8 32.7 26.8 100 0.0 NNE 9 15 5 8 1008.1 - 5.0
04/03:00pm 25.7 - 25.9 - - NE 11 17 6 9 1008.6 1008.3 5.0
04/02:50pm 25.3 - 25.5 - - NNE 17 24 9 13 1008.7 - 5.0
04/02:42pm 25.3 - 25.5 - - NNE 22 39 12 21 1008.9 - 5.0
04/02:32pm 25.5 - 25.7 - - NNE 26 35 14 19 1008.9 - 4.6
04/02:30pm 25.5 - 25.7 - - ENE 30 48 16 26 1009.5 - 4.2
04/02:28pm 25.5 - 25.7 - - ENE 30 48 16 26 1009.8 - 3.4
04/02:00pm 26.8 30.8 26.8 100 0.0 NE 19 33 10 18 1009.0 - 1.4
04/01:51pm 27.7 30.5 25.3 87 1.7 NE 20 35 11 19 1008.6 - 0.2
04/01:30pm 32.9 34.6 21.7 51 7.6 ENE 15 20 8 11 1008.2 - 0.0
04/01:00pm 34.2 36.6 21.6 47 8.6 ESE 11 17 6 9 1008.2 - 0.0
04/12:30pm 33.8 36.5 22.2 50 7.9 ESE 11 20 6 11 1009.0 - 0.0
04/12:00pm 33.9 37.3 22.7 52 7.7 ESE 9 19 5 10 1009.2 1008.9 0.0
04/11:30am 33.6 37.0 22.7 53 7.5 E 9 17 5 9 1009.5 - 0.0
04/11:00am 33.6 37.5 23.6 56 7.0 ESE 9 13 5 7 1009.8 - 0.0
04/10:30am 32.4 35.6 23.1 58 6.4 SSE 11 17 6 9 1010.1 - 0.0
04/10:00am 31.7 35.7 23.8 63 5.5 SE 9 13 5 7 1010.3 - 0.0
04/09:30am 30.4 35.2 24.5 70 4.1 S 7 9 4 5 1010.7 - 0.0
04/09:00am 29.8 35.1 25.8 79 2.8 S 9 11 5 6 1010.7 1010.4 0.0
04/08:30am 28.7 35.9 26.7 89 1.4 S 2 6 1 3 1010.0 - 0.0
04/08:00am 27.9 34.3 27.0 95 0.6 S 7 9 4 5 1009.7 - 0.0
04/07:30am 27.2 34.7 27.2 100 0.0 S 2 7 1 4 1009.2 - 0.0
04/07:00am 26.2 33.4 26.2 100 0.0 CALM 0 0 0 0 1008.8 - 0.0
04/06:30am 26.1 33.3 26.1 100 0.0 CALM 0 0 0 0 1008.4 - 0.0
04/06:06am 26.1 33.3 26.1 100 0.0 CALM 0 0 0 0 1008.4 - 0.0
04/06:00am 26.3 33.2 26.3 100 0.0 S 2 6 1 3 1008.4 1008.1 0.0
04/05:53am 26.4 33.4 26.4 100 0.0 S 2 6 1 3 1008.4 - 0.0
04/05:30am 26.4 33.8 26.4 100 0.0 CALM 0 0 0 0 1008.1 - 0.0
04/05:00am 26.5 33.9 26.5 100 0.0 CALM 0 0 0 0 1007.9 - 0.0
04/04:30am 26.8 34.4 26.8 100 0.0 CALM 0 0 0 0 1007.5 - 0.0
04/04:00am 26.8 34.4 26.8 100 0.0 CALM 0 0 0 0 1007.3 - 0.0
04/03:30am 27.1 34.2 26.6 97 0.4 S 2 6 1 3 1007.3 - 0.0
04/03:00am 27.0 34.3 26.3 96 0.5 CALM 0 2 0 1 1007.4 1007.1 0.0
04/02:30am 27.4 34.6 26.2 93 0.9 CALM 0 7 0 4 1007.6 - 0.0
04/02:00am 28.0 34.0 24.8 83 2.2 N 2 6 1 3 1007.7 - 0.0
04/01:30am 28.2 33.1 24.4 80 2.6 N 6 7 3 4 1008.0 - 0.0
04/01:00am 28.4 33.3 24.4 79 2.8 N 6 7 3 4 1008.5 - 0.0
04/12:30am 28.7 33.4 24.3 77 3.1 N 7 9 4 5 1008.9 - 0.0
04/12:00am 29.0 33.8 24.1 75 3.4 NNE 6 7 3 4 1009.1 1008.8 0.0
 
Date/Time
CST
Temp
°C
App
Temp
°C
Dew
Point
Rel
Hum
%
Delta-T
°C
Wind Press
QNH
hPa
Press
MSL
hPa
Rain
since 9 am
mm
Dir
 
Spd
km/h
Gust
km/h
Spd
kts
Gust
kts
03/11:30pm 29.4 34.0 23.8 72 3.9 N 6 9 3 5 1009.3 - 0.0
03/11:00pm 29.7 34.4 23.9 71 4.0 N 6 7 3 4 1009.3 - 0.0
03/10:30pm 30.1 33.9 23.5 67 4.6 NNE 9 15 5 8 1009.3 - 0.0
03/10:00pm 30.5 33.4 23.2 65 5.0 NNE 13 19 7 10 1009.1 - 0.0
03/09:30pm 30.9 33.9 23.3 64 5.2 NNE 13 20 7 11 1008.8 - 0.0
03/09:00pm 31.1 34.4 23.2 63 5.5 N 11 17 6 9 1008.4 1008.1 0.0
03/08:30pm 31.6 33.9 22.0 56 6.5 NNE 13 19 7 10 1007.7 - 0.0
03/08:00pm 32.0 34.3 22.1 55 6.7 NNE 13 24 7 13 1007.5 - 0.0
03/07:30pm 32.5 34.8 21.4 52 7.5 NNE 11 19 6 10 1007.1 - 0.0
03/07:00pm 32.9 34.5 20.8 49 8.1 N 13 19 7 10 1006.6 - 0.0
03/06:30pm 33.5 35.8 20.6 46 8.6 NNE 9 17 5 9 1006.5 - 0.0
03/06:00pm 33.7 35.0 20.8 46 8.7 NNE 15 20 8 11 1006.1 1005.8 0.0
03/05:30pm 34.3 35.5 20.6 44 9.2 NE 15 22 8 12 1005.9 - 0.0
03/05:00pm 34.8 36.2 21.1 44 9.3 NE 15 24 8 13 1005.7 - 0.0
03/04:30pm 34.7 35.7 21.0 44 9.3 NE 17 24 9 13 1005.8 - 0.0
03/04:00pm 35.3 36.4 21.2 44 9.6 NE 17 28 9 15 1005.7 - 0.0
03/03:30pm 35.3 36.2 20.8 42 9.8 NNE 17 28 9 15 1005.9 - 0.0
03/03:00pm 35.4 36.5 21.3 44 9.6 NNE 17 28 9 15 1006.1 1005.8 0.0
03/02:30pm 34.9 36.4 21.2 45 9.3 NE 15 28 8 15 1006.4 - 0.0
03/02:00pm 36.1 37.3 21.5 42 10.0 NE 17 26 9 14 1006.5 - 0.0
03/01:30pm 35.9 36.5 21.0 42 10.1 NE 19 35 10 19 1007.0 - 0.0
03/01:00pm 36.0 36.6 21.4 42 10.0 NNE 20 28 11 15 1007.4 - 0.0
03/12:30pm 35.5 36.3 21.4 44 9.6 ENE 19 28 10 15 1007.7 - 0.0
03/12:00pm 34.6 35.5 22.0 48 8.6 NE 20 35 11 19 1008.1 1007.8 0.0
03/11:30am 34.5 35.9 22.9 51 8.0 NNE 20 30 11 16 1008.4 - 0.0
03/11:00am 34.1 34.8 22.2 50 8.2 NNE 22 35 12 19 1008.9 - 0.0
03/10:30am 34.2 35.3 22.3 50 8.2 NE 20 32 11 17 1008.9 - 0.0
03/10:00am 32.9 34.6 22.4 54 7.2 NNE 17 22 9 12 1009.0 - 0.0
03/09:30am 31.7 34.6 22.4 58 6.4 NNE 11 19 6 10 1008.6 - 0.0
03/09:00am 31.5 36.5 25.4 70 4.3 NE 9 15 5 8 1008.5 1008.2 0.0
03/08:30am 30.1 34.6 25.2 75 3.5 NE 11 19 6 10 1008.2 - 0.0
03/08:00am 29.4 34.3 26.4 84 2.1 NE 13 17 7 9 1008.0 - 0.0
03/07:30am 28.4 34.7 27.3 94 0.8 NE 9 11 5 6 1007.6 - 0.0
03/07:00am 26.6 34.1 26.6 100 0.0 CALM 0 0 0 0 1007.7 - 0.0
03/06:30am 25.8 32.8 25.8 100 0.0 CALM 0 0 0 0 1007.4 - 0.0
03/06:00am 26.1 32.1 26.1 100 0.0 SW 6 7 3 4 1007.0 1006.7 0.0
03/05:30am 26.0 33.1 26.0 100 0.0 CALM 0 0 0 0 1006.5 - 0.0
03/05:00am 26.3 33.6 26.3 100 0.0 CALM 0 0 0 0 1006.3 - 0.0
03/04:30am 27.1 34.0 26.9 99 0.1 NNE 4 7 2 4 1006.0 - 0.0
03/04:00am 27.1 33.5 26.6 97 0.4 E 6 7 3 4 1005.9 - 0.0
03/03:30am 27.2 33.4 26.7 97 0.4 ENE 7 7 4 4 1006.2 - 0.0
03/03:00am 27.4 33.9 26.2 93 0.9 ESE 4 7 2 4 1006.4 1006.1 0.0
03/02:36am 27.6 33.2 25.8 90 1.3 ENE 7 9 4 5 1006.4 - 0.0
03/02:30am 27.8 33.6 26.0 90 1.3 ENE 7 11 4 6 1006.4 - 0.0
03/02:23am 27.9 33.2 25.9 89 1.4 NE 9 11 5 6 1006.4 - 0.0
03/02:00am 28.0 33.3 25.8 88 1.6 NE 9 13 5 7 1006.5 - 0.0
03/01:30am 28.1 33.5 25.5 86 1.8 NE 7 9 4 5 1006.7 - 0.0
03/01:00am 28.4 33.7 25.2 83 2.2 NNE 7 11 4 6 1007.0 - 0.0
03/12:30am 28.7 33.5 25.1 81 2.5 NE 9 13 5 7 1007.2 - 0.0
03/12:00am 28.8 33.4 24.8 79 2.8 NE 9 15 5 8 1007.2 1006.9 0.0
 
Date/Time
CST
Temp
°C
App
Temp
°C
Dew
Point
Rel
Hum
%
Delta-T
°C
Wind Press
QNH
hPa
Press
MSL
hPa
Rain
since 9 am
mm
Dir
 
Spd
km/h
Gust
km/h
Spd
kts
Gust
kts
02/11:30pm 29.2 32.8 24.3 75 3.4 NE 13 20 7 11 1007.2 - 0.0
02/11:00pm 29.3 32.5 23.7 72 3.9 NE 13 20 7 11 1007.0 - 0.0
02/10:30pm 29.6 32.1 23.1 68 4.5 NE 15 24 8 13 1006.9 - 0.0
02/10:00pm 30.0 32.3 22.7 65 5.0 NE 15 22 8 12 1006.8 - 0.0
02/09:30pm 30.4 32.4 22.3 62 5.5 NE 15 22 8 12 1006.5 - 0.0
02/09:00pm 30.9 32.3 21.9 58 6.1 NE 17 26 9 14 1006.2 1005.9 0.0
02/08:30pm 31.2 33.2 22.2 58 6.1 NNE 15 26 8 14 1005.9 - 0.0
02/08:00pm 31.7 33.3 22.1 56 6.5 NE 17 28 9 15 1005.7 - 0.0
02/07:30pm 32.2 33.2 21.7 54 7.1 NNE 19 30 10 16 1005.1 - 0.0
02/07:00pm 33.0 34.2 21.5 50 7.8 NE 17 24 9 13 1004.5 - 0.0
02/06:30pm 33.9 35.3 21.0 47 8.7 NE 15 24 8 13 1004.0 - 0.0
02/06:00pm 34.8 35.8 21.1 44 9.3 NE 17 24 9 13 1003.6 1003.3 0.0
02/05:30pm 35.3 36.0 20.4 41 10.0 NE 17 24 9 13 1003.4 - 0.0
02/05:00pm 35.9 37.1 19.8 39 10.7 NE 13 22 7 12 1003.3 - 0.0
02/04:30pm 36.5 37.3 19.9 38 11.1 ENE 15 30 8 16 1003.4 - 0.0
02/04:00pm 37.0 38.4 20.3 37 11.3 NE 13 22 7 12 1003.5 - 0.0
02/03:30pm 36.6 37.5 20.0 38 11.1 ENE 15 26 8 14 1003.7 - 0.0
02/03:00pm 36.1 35.8 18.2 34 11.7 ENE 17 28 9 15 1004.0 1003.7 0.0
02/02:30pm 36.5 37.1 20.3 38 10.9 NE 17 26 9 14 1004.6 - 0.0
02/02:00pm 35.9 36.7 19.8 39 10.7 ENE 15 24 8 13 1004.9 - 0.0
02/01:30pm 35.4 36.5 20.5 41 10.0 NE 15 24 8 13 1005.2 - 0.0
02/01:00pm 35.1 36.8 21.0 43 9.5 NNE 13 20 7 11 1005.5 - 0.0
02/12:30pm 35.7 37.5 21.9 44 9.5 E 15 28 8 15 1006.0 - 0.0
02/12:00pm 34.9 37.1 22.6 49 8.5 N 15 28 8 15 1006.4 1006.1 0.0
02/11:30am 34.2 35.3 21.9 48 8.4 E 19 28 10 15 1006.7 - 0.0
02/11:00am 33.1 34.5 21.9 51 7.6 NE 17 26 9 14 1007.0 - 0.0
02/10:30am 33.7 35.8 23.1 54 7.3 NE 17 32 9 17 1007.1 - 0.0
02/10:00am 32.6 34.9 23.5 58 6.3 NNE 17 26 9 14 1007.3 - 0.0
02/09:30am 32.4 35.2 23.6 59 6.1 NE 15 24 8 13 1007.4 - 0.0
02/09:00am 30.9 34.2 23.8 66 4.9 NE 13 24 7 13 1007.3 1007.0 -
02/08:30am 30.3 34.5 24.7 72 3.9 ENE 11 17 6 9 1007.2 - -
02/08:00am 29.6 34.7 25.6 79 2.8 E 9 15 5 8 1006.8 - -
02/07:30am 28.3 34.8 27.1 93 0.9 ESE 7 9 4 5 1006.8 - -
02/07:00am 27.0 34.4 27.0 100 0.0 SSE 2 9 1 5 1006.5 - -
02/06:30am 26.8 33.7 26.8 100 0.0 SSE 4 7 2 4 1006.2 - -
02/06:00am 26.7 33.5 26.7 100 0.0 ESE 4 7 2 4 1006.1 1005.8 -
02/05:30am 26.9 33.8 26.9 100 0.0 ESE 4 7 2 4 1005.7 - -
02/05:00am 27.0 33.8 26.7 98 0.2 SE 4 7 2 4 1005.8 - -
02/04:30am 27.3 34.3 26.4 95 0.6 SSE 2 6 1 3 1005.7 - -
02/04:00am 27.5 33.9 26.1 92 1.0 ESE 4 7 2 4 1005.8 - -
02/03:30am 27.7 33.5 25.7 89 1.4 NE 6 9 3 5 1005.5 - -
02/03:00am 28.2 33.7 25.6 86 1.8 NE 7 11 4 6 1005.5 1005.2 -
02/02:30am 28.3 33.8 25.3 84 2.1 NE 6 9 3 5 1005.7 - -
02/02:00am 28.6 33.9 25.2 82 2.4 NNE 7 11 4 6 1005.9 - -
02/01:30am 28.9 33.6 24.9 79 2.8 NE 9 13 5 7 1006.1 - -
02/01:00am 29.2 32.9 24.5 76 3.3 ENE 13 17 7 9 1006.4 - -
02/12:30am 29.4 33.5 24.0 72 3.7 ENE 9 13 5 7 1006.7 - -
02/12:00am 29.6 32.9 23.8 71 4.0 NE 13 20 7 11 1006.9 1006.6 -
 
Date/Time
CST
Temp
°C
App
Temp
°C
Dew
Point
Rel
Hum
%
Delta-T
°C
Wind Press
QNH
hPa
Press
MSL
hPa
Rain
since 9 am
mm
Dir
 
Spd
km/h
Gust
km/h
Spd
kts
Gust
kts
01/11:30pm 29.7 33.5 23.4 69 4.3 NE 9 11 5 6 1007.2 - -
01/11:00pm 30.0 33.3 23.2 67 4.7 ENE 11 17 6 9 1007.3 - -
01/10:30pm 30.4 32.7 22.8 64 5.2 NE 15 20 8 11 1007.0 - -
01/10:00pm 30.8 33.4 22.7 62 5.5 NE 13 19 7 10 1007.1 - -
01/09:30pm 31.0 34.1 22.9 62 5.6 NNE 11 17 6 9 1006.8 - -
01/09:00pm 31.4 34.2 23.0 61 5.8 NNE 13 19 7 10 1006.2 1005.9 -
01/08:30pm 31.8 33.9 23.1 60 6.0 NE 17 26 9 14 1005.8 - -
01/08:00pm 32.4 34.5 23.1 58 6.4 NE 17 26 9 14 1005.1 - -
01/07:30pm 33.3 35.4 22.4 52 7.5 NNE 15 24 8 13 1004.4 - -
01/07:00pm 34.2 36.4 21.9 48 8.4 NE 13 20 7 11 1003.7 - -
01/06:30pm 34.8 36.4 21.5 46 9.0 NE 15 22 8 12 1003.1 - -
01/06:00pm 35.5 37.2 20.2 40 10.3 ENE 11 15 6 8 1002.8 1002.5 -
01/05:30pm 36.5 37.8 19.4 36 11.4 NE 11 15 6 8 1002.4 - -
01/05:00pm 36.9 37.8 18.4 33 12.2 ENE 11 19 6 10 1002.1 - -
01/04:30pm 37.1 38.7 19.1 35 11.9 E 9 15 5 8 1002.3 - -

Other Formats:

Comma delimited format used in spreadsheet applications
http://www.bom.gov.au/fwo/IDD60801/IDD60801.94239.axf

JavaScript Object Notation format (JSON) in row-major order
http://www.bom.gov.au/fwo/IDD60801/IDD60801.94239.json